createdAt,value
2022-07-25T00:01:56.841Z,25.66
2022-07-25T00:04:24.776Z,25.64
2022-07-25T00:06:55.591Z,25.60
2022-07-25T00:09:22.781Z,25.55
2022-07-25T00:11:51.044Z,25.52
2022-07-25T00:14:20.175Z,25.54
2022-07-25T00:16:47.890Z,25.55
2022-07-25T00:19:18.939Z,25.47
2022-07-25T00:21:46.136Z,25.37
2022-07-25T00:24:13.265Z,25.34
2022-07-25T00:26:40.754Z,25.34
2022-07-25T00:29:12.937Z,25.36
2022-07-25T00:31:47.224Z,25.38
2022-07-25T00:34:14.492Z,25.43
2022-07-25T00:36:41.722Z,25.52
2022-07-25T00:39:08.984Z,25.52
2022-07-25T00:41:36.174Z,25.45
2022-07-25T00:44:03.949Z,25.42
2022-07-25T00:46:31.856Z,25.42
2022-07-25T00:48:59.613Z,25.42
2022-07-25T00:51:26.837Z,25.42
2022-07-25T00:53:54.281Z,25.40
2022-07-25T00:56:21.788Z,25.39
2022-07-25T00:58:48.989Z,25.44
2022-07-25T01:01:16.359Z,25.46
2022-07-25T01:03:43.619Z,25.46
2022-07-25T01:06:15.573Z,25.43
2022-07-25T01:08:43.116Z,25.39
2022-07-25T01:11:10.941Z,25.31
2022-07-25T01:13:39.411Z,25.25
2022-07-25T01:16:07.031Z,25.25
2022-07-25T01:18:34.974Z,25.23
2022-07-25T01:21:02.399Z,25.14
2022-07-25T01:23:29.859Z,25.07
2022-07-25T01:25:57.225Z,24.97
2022-07-25T01:28:24.460Z,24.79
2022-07-25T01:30:52.083Z,24.62
2022-07-25T01:33:20.554Z,24.57
2022-07-25T01:35:48.879Z,24.58
2022-07-25T01:38:16.144Z,24.60
2022-07-25T01:40:43.721Z,24.61
2022-07-25T01:43:11.073Z,24.62
2022-07-25T01:45:38.533Z,24.57
2022-07-25T01:48:06.178Z,24.49
2022-07-25T01:50:33.705Z,24.40
2022-07-25T01:53:01.065Z,24.30
2022-07-25T01:55:28.587Z,24.23
2022-07-25T01:57:58.232Z,24.20
2022-07-25T02:00:25.387Z,24.14
2022-07-25T02:03:12.498Z,24.12
2022-07-25T02:05:39.847Z,24.13
2022-07-25T02:08:07.191Z,24.15
2022-07-25T02:10:37.036Z,24.17
2022-07-25T02:13:04.844Z,24.18
2022-07-25T02:15:33.390Z,24.20
2022-07-25T02:18:00.991Z,24.19
2022-07-25T02:20:28.171Z,24.14
2022-07-25T02:22:55.358Z,24.07
2022-07-25T02:25:22.933Z,24.06
2022-07-25T02:27:50.169Z,24.02
2022-07-25T02:30:18.091Z,24.04
2022-07-25T02:32:45.215Z,24.11
2022-07-25T02:35:12.711Z,24.17
2022-07-25T02:37:41.689Z,24.19
2022-07-25T02:40:09.473Z,24.21
2022-07-25T02:42:36.746Z,24.24
2022-07-25T02:45:05.843Z,24.32
2022-07-25T02:47:34.836Z,24.41
2022-07-25T02:50:01.992Z,24.46
2022-07-25T02:52:29.416Z,24.46
2022-07-25T02:54:56.611Z,24.46
2022-07-25T02:57:23.753Z,24.45
2022-07-25T02:59:50.862Z,24.44
2022-07-25T03:02:18.595Z,24.48
2022-07-25T03:04:45.884Z,24.52
2022-07-25T03:07:13.179Z,24.53
2022-07-25T03:09:40.925Z,24.51
2022-07-25T03:12:08.258Z,24.50
2022-07-25T03:14:36.451Z,24.50
2022-07-25T03:17:04.342Z,24.47
2022-07-25T03:19:33.497Z,24.49
2022-07-25T03:22:00.701Z,24.56
2022-07-25T03:24:28.176Z,24.58
2022-07-25T03:26:55.760Z,24.57
2022-07-25T03:29:23.133Z,24.55
2022-07-25T03:31:50.437Z,24.51
2022-07-25T03:34:18.068Z,24.49
2022-07-25T03:36:45.213Z,24.50
2022-07-25T03:39:12.511Z,24.52
2022-07-25T03:41:39.814Z,24.54
2022-07-25T03:44:08.179Z,24.51
2022-07-25T03:46:35.805Z,24.48
2022-07-25T03:49:04.522Z,24.44
2022-07-25T03:51:32.173Z,24.41
2022-07-25T03:54:02.959Z,24.39
2022-07-25T03:56:43.502Z,24.42
2022-07-25T03:59:12.618Z,24.45
2022-07-25T04:01:39.965Z,24.46
2022-07-25T04:04:08.360Z,24.48
2022-07-25T04:06:35.893Z,24.49
2022-07-25T04:09:03.095Z,24.50
2022-07-25T04:11:31.176Z,24.51
2022-07-25T04:13:58.793Z,24.50
2022-07-25T04:16:27.971Z,24.50
2022-07-25T04:18:56.295Z,24.52
2022-07-25T04:21:24.816Z,24.59
2022-07-25T04:23:52.047Z,24.66
2022-07-25T04:26:19.437Z,24.68
2022-07-25T04:28:47.793Z,24.68
2022-07-25T04:31:15.728Z,24.65
2022-07-25T04:33:43.416Z,24.60
2022-07-25T04:36:12.119Z,24.55
2022-07-25T04:38:39.997Z,24.55
2022-07-25T04:41:07.173Z,24.56
2022-07-25T04:43:34.484Z,24.59
2022-07-25T04:46:02.317Z,24.61
2022-07-25T04:48:29.959Z,24.68
2022-07-25T04:50:57.361Z,24.79
2022-07-25T04:53:25.241Z,24.87
2022-07-25T04:55:52.425Z,24.93
2022-07-25T04:58:19.977Z,24.97
2022-07-25T05:00:47.305Z,25.01
2022-07-25T05:03:14.791Z,25.03
2022-07-25T05:05:42.350Z,24.97
2022-07-25T05:08:10.089Z,24.93
2022-07-25T05:10:37.269Z,24.91
2022-07-25T05:13:04.449Z,24.91
2022-07-25T05:15:32.750Z,24.92
2022-07-25T05:18:00.437Z,24.94
2022-07-25T05:20:27.754Z,25.01
2022-07-25T05:22:54.978Z,25.12
2022-07-25T05:25:22.351Z,25.19
2022-07-25T05:27:49.607Z,25.28
2022-07-25T05:30:19.862Z,25.37
2022-07-25T05:32:47.013Z,25.49
2022-07-25T05:35:15.883Z,25.59
2022-07-25T05:37:43.382Z,25.69
2022-07-25T05:40:10.741Z,25.79
2022-07-25T05:42:38.516Z,25.88
2022-07-25T05:46:26.294Z,26.01
2022-07-25T05:48:53.723Z,26.04
2022-07-25T05:51:20.898Z,26.06
2022-07-25T05:53:48.266Z,26.09
2022-07-25T05:56:18.670Z,26.13
2022-07-25T05:58:46.142Z,26.15
2022-07-25T06:01:14.137Z,26.20
2022-07-25T06:03:41.911Z,26.26
2022-07-25T06:06:09.838Z,26.32
2022-07-25T06:08:38.077Z,26.36
2022-07-25T06:11:08.203Z,26.40
2022-07-25T06:13:37.116Z,26.39
2022-07-25T06:16:06.292Z,26.37
2022-07-25T06:18:35.756Z,26.32
2022-07-25T06:21:03.193Z,26.29
2022-07-25T06:23:31.867Z,26.27
2022-07-25T06:26:02.683Z,26.27
2022-07-25T06:28:30.616Z,26.35
2022-07-25T06:30:57.767Z,26.47
2022-07-25T06:33:25.812Z,26.54
2022-07-25T06:35:53.193Z,26.56
2022-07-25T06:38:20.530Z,26.57
2022-07-25T06:40:48.201Z,26.56
2022-07-25T06:43:15.398Z,26.58
2022-07-25T06:45:47.262Z,26.58
2022-07-25T06:48:15.541Z,26.55
2022-07-25T06:50:42.735Z,26.48
2022-07-25T06:53:10.011Z,26.37
2022-07-25T06:55:37.182Z,26.27
2022-07-25T06:58:04.576Z,26.20
2022-07-25T07:00:31.879Z,26.19
2022-07-25T07:03:01.679Z,26.21
2022-07-25T07:05:32.999Z,26.24
2022-07-25T07:08:00.970Z,26.27
2022-07-25T07:10:35.284Z,26.28
2022-07-25T07:13:12.756Z,26.26
2022-07-25T07:15:46.132Z,26.26
2022-07-25T07:18:14.281Z,26.31
2022-07-25T07:20:50.516Z,26.38
2022-07-25T07:23:18.451Z,26.43
2022-07-25T07:25:47.477Z,26.47
2022-07-25T07:28:15.946Z,26.48
2022-07-25T07:33:30.883Z,26.46
2022-07-25T07:35:58.879Z,26.49
2022-07-25T07:38:26.499Z,26.52
2022-07-25T07:40:54.313Z,26.54
2022-07-25T07:43:25.009Z,26.54
2022-07-25T07:45:57.210Z,26.49
2022-07-25T07:48:25.141Z,26.46
2022-07-25T07:50:53.436Z,26.45
2022-07-25T07:53:20.930Z,26.43
2022-07-25T07:55:55.504Z,26.46
2022-07-25T07:58:22.743Z,26.51
2022-07-25T08:00:51.220Z,26.55
2022-07-25T08:03:20.505Z,26.59
2022-07-25T08:05:49.224Z,26.62
2022-07-25T08:08:16.630Z,26.65
2022-07-25T08:10:45.758Z,26.69
2022-07-25T08:13:23.004Z,26.74
2022-07-25T08:15:53.023Z,26.76
2022-07-25T08:18:22.088Z,26.79
2022-07-25T08:20:50.388Z,26.81
2022-07-25T08:23:18.184Z,26.80
2022-07-25T08:25:45.626Z,26.83
2022-07-25T08:28:13.375Z,26.88
2022-07-25T08:30:40.745Z,26.93
2022-07-25T08:33:33.631Z,26.96
2022-07-25T08:36:02.350Z,26.98
2022-07-25T08:38:30.150Z,27.04
2022-07-25T08:41:03.696Z,27.10
2022-07-25T08:43:39.859Z,27.12
2022-07-25T08:46:11.298Z,27.14
2022-07-25T08:48:39.269Z,27.17
2022-07-25T08:51:06.725Z,27.19
2022-07-25T08:53:35.068Z,27.21
2022-07-25T08:56:12.543Z,27.21
2022-07-25T08:58:44.219Z,27.15
2022-07-25T09:01:15.788Z,27.12
2022-07-25T09:03:48.094Z,27.17
2022-07-25T09:06:16.827Z,27.22
2022-07-25T09:08:56.657Z,27.29
2022-07-25T09:11:44.069Z,27.38
2022-07-25T09:14:14.888Z,27.45
2022-07-25T09:16:48.294Z,27.50
2022-07-25T09:19:20.778Z,27.56
2022-07-25T09:22:10.378Z,27.65
2022-07-25T09:24:44.375Z,27.74
2022-07-25T09:27:12.955Z,27.78
2022-07-25T09:29:40.909Z,27.80
2022-07-25T09:32:22.982Z,27.83
2022-07-25T09:34:50.846Z,27.87
2022-07-25T09:37:20.034Z,27.92
2022-07-25T09:39:51.346Z,28.01
2022-07-25T09:42:29.082Z,28.06
2022-07-25T09:45:11.574Z,28.08
2022-07-25T09:48:01.309Z,28.10
2022-07-25T09:50:31.932Z,28.13
2022-07-25T09:53:03.350Z,28.17
2022-07-25T09:55:30.905Z,28.18
2022-07-25T09:57:58.189Z,28.16
2022-07-25T10:00:28.565Z,28.14
2022-07-25T10:03:02.007Z,28.11
2022-07-25T10:05:53.220Z,28.11
2022-07-25T10:08:24.090Z,28.13
2022-07-25T10:10:51.274Z,28.13
2022-07-25T10:13:39.420Z,28.13
2022-07-25T10:16:15.475Z,28.12
2022-07-25T10:18:48.547Z,28.12
2022-07-25T10:21:26.194Z,28.11
2022-07-25T10:24:06.229Z,28.09
2022-07-25T10:26:39.273Z,28.02
2022-07-25T10:29:10.670Z,27.95
2022-07-25T10:31:49.384Z,27.95
2022-07-25T10:34:28.447Z,28.00
2022-07-25T10:36:57.560Z,28.07
2022-07-25T10:39:24.700Z,28.12
2022-07-25T10:42:02.988Z,28.18
2022-07-25T10:44:47.790Z,28.22
2022-07-25T10:47:18.659Z,28.25
2022-07-25T10:50:16.467Z,28.26
2022-07-25T10:52:41.217Z,28.29
2022-07-25T10:55:09.090Z,28.33
2022-07-25T10:57:45.318Z,28.36
2022-07-25T11:00:22.375Z,28.37
2022-07-25T11:02:50.500Z,28.38
2022-07-25T11:05:17.868Z,28.42
2022-07-25T11:08:18.858Z,28.46
2022-07-25T11:10:43.105Z,28.48
2022-07-25T11:13:15.130Z,28.51
2022-07-25T11:15:43.179Z,28.53
2022-07-25T11:18:10.465Z,28.54
2022-07-25T11:20:37.624Z,28.57
2022-07-25T11:23:04.780Z,28.60
2022-07-25T11:25:33.530Z,28.66
2022-07-25T11:28:01.116Z,28.72
2022-07-25T11:30:31.377Z,28.78
2022-07-25T11:33:01.831Z,28.85
2022-07-25T11:35:31.155Z,28.93
2022-07-25T11:38:00.023Z,28.98
2022-07-25T11:40:27.233Z,29.02
2022-07-25T11:42:56.510Z,29.00
2022-07-25T11:45:28.094Z,29.00
2022-07-25T11:48:11.936Z,29.04
2022-07-25T11:50:43.203Z,29.10
2022-07-25T11:53:15.123Z,29.15
2022-07-25T11:55:43.547Z,29.15
2022-07-25T11:58:13.038Z,29.16
2022-07-25T12:00:42.263Z,29.18
2022-07-25T12:03:19.576Z,29.19
2022-07-25T12:05:48.746Z,29.23
2022-07-25T12:08:20.182Z,29.26
2022-07-25T12:10:48.058Z,29.29
2022-07-25T12:13:26.487Z,29.28
2022-07-25T12:15:54.152Z,29.24
2022-07-25T12:18:21.739Z,29.19
2022-07-25T12:20:49.993Z,29.18
2022-07-25T12:23:17.430Z,29.18
2022-07-25T12:25:46.122Z,29.22
2022-07-25T12:28:13.884Z,29.28
2022-07-25T12:30:42.094Z,29.38
2022-07-25T12:33:09.723Z,29.46
2022-07-25T12:35:37.699Z,29.48
2022-07-25T12:38:05.329Z,29.48
2022-07-25T12:40:33.026Z,29.45
2022-07-25T12:43:00.395Z,29.37
2022-07-25T12:45:28.155Z,29.27
2022-07-25T12:47:57.013Z,29.17
2022-07-25T12:50:26.222Z,29.07
2022-07-25T12:52:54.485Z,29.01
2022-07-25T12:55:22.058Z,28.95
2022-07-25T12:57:49.397Z,28.92
2022-07-25T13:00:19.398Z,28.90
2022-07-25T13:02:47.079Z,28.91
2022-07-25T13:05:14.358Z,28.92
2022-07-25T13:07:43.265Z,28.94
2022-07-25T13:10:11.021Z,28.94
2022-07-25T13:12:38.330Z,28.95
2022-07-25T13:15:10.412Z,28.98
2022-07-25T13:17:37.736Z,28.98
2022-07-25T13:20:06.873Z,28.96
2022-07-25T13:22:34.414Z,28.93
2022-07-25T13:25:01.661Z,28.96
2022-07-25T13:27:29.175Z,29.00
2022-07-25T13:29:58.189Z,29.06
2022-07-25T13:32:26.965Z,29.10
2022-07-25T13:34:55.554Z,29.14
2022-07-25T13:37:23.162Z,29.18
2022-07-25T13:39:50.372Z,29.25
2022-07-25T13:42:17.954Z,29.32
2022-07-25T13:44:45.431Z,29.32
2022-07-25T13:47:12.669Z,29.26
2022-07-25T13:49:41.582Z,29.19
2022-07-25T13:52:08.908Z,29.15
2022-07-25T13:54:36.079Z,29.09
2022-07-25T13:57:03.883Z,29.03
2022-07-25T13:59:31.213Z,28.96
2022-07-25T14:01:58.615Z,28.92
2022-07-25T14:04:27.474Z,28.90
2022-07-25T14:06:55.004Z,28.91
2022-07-25T14:09:25.739Z,28.94
2022-07-25T14:11:53.191Z,28.97
2022-07-25T14:14:23.352Z,28.99
2022-07-25T14:16:54.313Z,29.02
2022-07-25T14:19:25.036Z,29.08
2022-07-25T14:22:01.390Z,29.12
2022-07-25T14:24:40.762Z,29.16
2022-07-25T14:27:37.340Z,29.17
2022-07-25T14:30:06.926Z,29.16
2022-07-25T14:32:36.512Z,29.14
2022-07-25T14:35:12.485Z,29.14
2022-07-25T14:37:40.068Z,29.15
2022-07-25T14:40:07.905Z,29.12
2022-07-25T14:42:35.044Z,29.05
2022-07-25T14:45:02.298Z,28.99
2022-07-25T14:47:30.896Z,28.95
2022-07-25T14:49:58.705Z,28.91
2022-07-25T14:52:29.383Z,28.87
2022-07-25T14:54:56.628Z,28.79
2022-07-25T14:57:23.917Z,28.72
2022-07-25T14:59:55.723Z,28.69
2022-07-25T15:02:23.055Z,28.66
2022-07-25T15:04:55.936Z,28.64
2022-07-25T15:07:25.106Z,28.63
2022-07-25T15:09:52.410Z,28.64
2022-07-25T15:12:21.079Z,28.63
2022-07-25T15:14:50.289Z,28.65
2022-07-25T15:17:38.510Z,28.64
2022-07-25T15:20:06.518Z,28.65
2022-07-25T15:22:41.235Z,28.65
2022-07-25T15:25:59.946Z,28.63
2022-07-25T15:27:59.980Z,28.58
2022-07-25T15:30:30.307Z,28.51
2022-07-25T15:32:57.925Z,28.45
2022-07-25T15:35:25.209Z,28.39
2022-07-25T15:37:55.030Z,28.36
2022-07-25T15:40:22.406Z,28.37
2022-07-25T15:42:49.998Z,28.42
2022-07-25T15:45:36.490Z,28.47
2022-07-25T15:48:04.517Z,28.49
2022-07-25T15:50:46.584Z,28.51
2022-07-25T15:53:19.059Z,28.53
2022-07-25T15:55:47.068Z,28.52
2022-07-25T15:58:32.078Z,28.48
2022-07-25T16:01:04.735Z,28.43
2022-07-25T16:03:32.610Z,28.38
2022-07-25T16:05:59.903Z,28.32
2022-07-25T16:08:28.674Z,28.25
2022-07-25T16:11:02.222Z,28.22
2022-07-25T16:13:31.783Z,28.20
2022-07-25T16:16:09.044Z,28.20
2022-07-25T16:18:48.574Z,28.19
2022-07-25T16:21:16.921Z,28.17
2022-07-25T16:23:45.652Z,28.14
2022-07-25T16:26:13.769Z,28.13
2022-07-25T16:28:41.315Z,28.12
2022-07-25T16:31:09.680Z,28.10
2022-07-25T16:33:36.941Z,28.07
2022-07-25T16:36:04.932Z,28.04
2022-07-25T16:38:33.135Z,28.00
2022-07-25T16:41:00.483Z,27.97
2022-07-25T16:43:27.684Z,27.94
2022-07-25T16:45:54.920Z,27.92
2022-07-25T16:48:22.336Z,27.90
2022-07-25T16:50:49.598Z,27.87
2022-07-25T16:53:16.983Z,27.85
2022-07-25T16:55:44.138Z,27.81
2022-07-25T16:58:11.826Z,27.78
2022-07-25T17:00:39.218Z,27.74
2022-07-25T17:03:06.990Z,27.71
2022-07-25T17:05:36.350Z,27.68
2022-07-25T17:08:03.853Z,27.65
2022-07-25T17:10:31.455Z,27.63
2022-07-25T17:13:01.925Z,27.61
2022-07-25T17:15:33.050Z,27.59
2022-07-25T17:18:00.363Z,27.57
2022-07-25T17:20:30.462Z,27.54
2022-07-25T17:22:57.989Z,27.51
2022-07-25T17:25:25.185Z,27.48
2022-07-25T17:27:52.864Z,27.44
2022-07-25T17:30:22.274Z,27.41
2022-07-25T17:32:50.371Z,27.38
2022-07-25T17:35:17.606Z,27.34
2022-07-25T17:37:45.626Z,27.30
2022-07-25T17:40:13.413Z,27.27
2022-07-25T17:42:45.068Z,27.24
2022-07-25T17:45:17.493Z,27.21
2022-07-25T17:47:47.430Z,27.18
2022-07-25T17:50:17.071Z,27.13
2022-07-25T17:52:44.910Z,27.09
2022-07-25T17:55:12.676Z,27.06
2022-07-25T17:57:42.839Z,27.03
2022-07-25T18:00:15.298Z,26.99
2022-07-25T18:04:09.342Z,26.95
2022-07-25T18:06:36.809Z,26.89
2022-07-25T18:09:04.364Z,26.87
2022-07-25T18:11:32.995Z,26.84
2022-07-25T18:14:00.321Z,26.81
2022-07-25T18:16:29.778Z,26.78
2022-07-25T18:19:00.078Z,26.76
2022-07-25T18:21:27.426Z,26.73
2022-07-25T18:23:54.864Z,26.71
2022-07-25T18:26:22.371Z,26.67
2022-07-25T18:28:49.741Z,26.64
2022-07-25T18:31:17.464Z,26.59
2022-07-25T18:33:44.920Z,26.53
2022-07-25T18:36:12.317Z,26.49
2022-07-25T18:38:39.550Z,26.45
2022-07-25T18:41:28.555Z,26.40
2022-07-25T18:43:56.613Z,26.36
2022-07-25T18:46:24.565Z,26.32
2022-07-25T18:48:54.096Z,26.29
2022-07-25T18:51:21.996Z,26.25
2022-07-25T18:53:49.830Z,26.21
2022-07-25T18:56:17.994Z,26.17
2022-07-25T18:58:45.332Z,26.15
2022-07-25T19:01:12.548Z,26.11
2022-07-25T19:03:40.983Z,26.09
2022-07-25T19:06:09.301Z,26.07
2022-07-25T19:08:38.241Z,26.05
2022-07-25T19:11:05.893Z,26.02
2022-07-25T19:13:51.220Z,25.98
2022-07-25T19:16:19.679Z,25.95
2022-07-25T19:18:55.936Z,25.93
2022-07-25T19:21:28.785Z,25.91
2022-07-25T19:23:56.084Z,25.89
2022-07-25T19:26:23.460Z,25.87
2022-07-25T19:28:51.117Z,25.84
2022-07-25T19:31:18.355Z,25.80
2022-07-25T19:33:46.946Z,25.77
2022-07-25T19:36:14.632Z,25.76
2022-07-25T19:38:42.182Z,25.73
2022-07-25T19:41:11.270Z,25.70
2022-07-25T19:43:38.940Z,25.68
2022-07-25T19:46:06.602Z,25.66
2022-07-25T19:48:39.343Z,25.64
2022-07-25T19:51:16.646Z,25.62
2022-07-25T19:53:44.015Z,25.59
2022-07-25T19:56:12.413Z,25.57
2022-07-25T19:58:43.416Z,25.54
2022-07-25T20:01:12.192Z,25.52
2022-07-25T20:03:41.554Z,25.51
2022-07-25T20:06:09.113Z,25.48
2022-07-25T20:08:39.625Z,25.46
2022-07-25T20:11:07.999Z,25.45
2022-07-25T20:13:35.862Z,25.42
2022-07-25T20:16:04.149Z,25.38
2022-07-25T20:18:32.057Z,25.33
2022-07-25T20:21:06.952Z,25.29
2022-07-25T20:23:34.388Z,25.24
2022-07-25T20:26:02.688Z,25.21
2022-07-25T20:28:30.433Z,25.16
2022-07-25T20:30:57.783Z,25.12
2022-07-25T20:33:27.308Z,25.08
2022-07-25T20:35:55.894Z,25.05
2022-07-25T20:38:25.604Z,25.01
2022-07-25T20:40:53.958Z,24.98
2022-07-25T20:43:23.230Z,24.96
2022-07-25T20:45:50.587Z,24.94
2022-07-25T20:48:17.757Z,24.93
2022-07-25T20:50:45.176Z,24.92
2022-07-25T20:53:13.220Z,24.91
2022-07-25T20:55:40.399Z,24.90
2022-07-25T20:58:07.602Z,24.89
2022-07-25T21:00:34.902Z,24.86
2022-07-25T21:03:02.457Z,24.84
2022-07-25T21:05:29.704Z,24.81
2022-07-25T21:07:57.191Z,24.78
2022-07-25T21:10:24.518Z,24.75
2022-07-25T21:12:52.156Z,24.73
2022-07-25T21:15:19.319Z,24.72
2022-07-25T21:17:47.520Z,24.71
2022-07-25T21:20:15.122Z,24.69
2022-07-25T21:22:42.881Z,24.67
2022-07-25T21:25:10.613Z,24.64
2022-07-25T21:27:39.434Z,24.62
2022-07-25T21:30:08.112Z,24.58
2022-07-25T21:32:36.257Z,24.55
2022-07-25T21:35:05.749Z,24.50
2022-07-25T21:37:33.088Z,24.46
2022-07-25T21:40:03.166Z,24.44
2022-07-25T21:42:30.684Z,24.41
2022-07-25T21:44:57.909Z,24.37
2022-07-25T21:47:25.069Z,24.34
2022-07-25T21:50:10.986Z,24.33
2022-07-25T21:52:40.609Z,24.30
2022-07-25T21:55:08.278Z,24.29
2022-07-25T21:57:35.776Z,24.28
2022-07-25T22:00:05.099Z,24.27
2022-07-25T22:02:45.459Z,24.27
2022-07-25T22:05:13.653Z,24.27
2022-07-25T22:07:41.683Z,24.27
2022-07-25T22:10:10.168Z,24.26
2022-07-25T22:12:38.613Z,24.26
2022-07-25T22:15:08.898Z,24.27
2022-07-25T22:17:48.982Z,24.26
2022-07-25T22:20:19.584Z,24.26
2022-07-25T22:22:48.052Z,24.26
2022-07-25T22:25:16.131Z,24.25
2022-07-25T22:27:45.423Z,24.25
2022-07-25T22:30:18.693Z,24.24
2022-07-25T22:32:49.645Z,24.23
2022-07-25T22:35:17.446Z,24.22
2022-07-25T22:37:45.563Z,24.20
2022-07-25T22:40:13.244Z,24.19
2022-07-25T22:42:40.716Z,24.18
2022-07-25T22:45:08.761Z,24.17
2022-07-25T22:47:36.663Z,24.16
2022-07-25T22:50:04.880Z,24.15
2022-07-25T22:52:35.273Z,24.14
2022-07-25T22:55:02.705Z,24.13
2022-07-25T22:57:30.453Z,24.12
2022-07-25T23:00:07.039Z,24.10
2022-07-25T23:02:35.667Z,24.08
2022-07-25T23:05:03.365Z,24.06
2022-07-25T23:07:33.451Z,24.03
2022-07-25T23:10:01.326Z,24.02
2022-07-25T23:12:28.682Z,24.00
2022-07-25T23:14:56.426Z,23.99
2022-07-25T23:17:25.666Z,23.98
2022-07-25T23:19:55.221Z,23.97
2022-07-25T23:22:24.120Z,23.97
2022-07-25T23:24:51.621Z,23.96
2022-07-25T23:27:19.012Z,23.96
2022-07-25T23:29:46.361Z,23.96
2022-07-25T23:32:13.720Z,23.95
2022-07-25T23:34:43.896Z,23.94
2022-07-25T23:37:11.411Z,23.93
2022-07-25T23:39:38.595Z,23.93
2022-07-25T23:42:08.164Z,23.91
2022-07-25T23:44:36.607Z,23.90
2022-07-25T23:47:09.449Z,23.89
2022-07-25T23:49:37.577Z,23.87
2022-07-25T23:52:05.461Z,23.86
2022-07-25T23:54:35.152Z,23.83
2022-07-25T23:57:02.703Z,23.81
2022-07-25T23:59:30.073Z,23.78
